Time;durP1;ratioP1;P1;durP2;ratioP2;P2;SDS_P1;SDS_P2;PMS_P1;PMS_P2;Temp;Humidity;BMP_temperature;BMP_pressure;BME280_temperature;BME280_humidity;BME280_pressure;Samples;Min_cycle;Max_cycle;Signal;HPM_P1;HPM_P2
2022/05/07 00:00:04;;;;;;;36.13;19.38;;;13.60;99.90;;;;;;4230151;28;20047;-82
2022/05/07 00:02:06;;;;;;;33.75;18.55;;;13.60;99.90;;;;;;4230813;28;20083;-83
2022/05/07 00:04:07;;;;;;;38.22;19.48;;;13.60;99.90;;;;;;4231365;28;20082;-83
2022/05/07 00:06:08;;;;;;;24.83;15.45;;;13.60;99.90;;;;;;4230823;28;20044;-82
2022/05/07 00:08:09;;;;;;;26.75;16.27;;;13.60;99.90;;;;;;4231186;28;20403;-83
2022/05/07 00:10:10;;;;;;;30.80;15.52;;;13.60;99.90;;;;;;4231294;28;20095;-82
2022/05/07 00:12:11;;;;;;;25.83;15.02;;;13.50;99.90;;;;;;4230409;28;20043;-83
2022/05/07 00:14:11;;;;;;;32.60;17.02;;;13.50;99.90;;;;;;4230871;28;20040;-82
2022/05/07 00:18:31;;;;;;;34.75;18.73;;;13.50;99.90;;;;;;4230961;28;20480;-82
2022/05/07 00:20:33;;;;;;;34.47;18.50;;;13.50;99.90;;;;;;4231299;28;20044;-82
2022/05/07 00:22:34;;;;;;;40.83;20.27;;;13.50;99.90;;;;;;4230698;28;20043;-82
2022/05/07 00:24:35;;;;;;;35.80;20.80;;;13.50;99.90;;;;;;4231253;28;20487;-82
2022/05/07 00:26:35;;;;;;;35.67;19.75;;;13.60;99.90;;;;;;4230970;28;20099;-82
2022/05/07 00:28:36;;;;;;;35.35;20.65;;;13.60;99.90;;;;;;4231247;28;20047;-82
2022/05/07 00:30:37;;;;;;;42.63;19.58;;;13.60;99.90;;;;;;4229949;28;20113;-82
2022/05/07 00:32:37;;;;;;;32.83;19.05;;;13.60;99.90;;;;;;4230969;28;20122;-83
2022/05/07 00:34:38;;;;;;;34.25;19.50;;;13.60;99.90;;;;;;4229628;28;20520;-82
2022/05/07 00:36:39;;;;;;;36.03;20.10;;;13.60;99.90;;;;;;4231721;28;20039;-82
2022/05/07 00:38:39;;;;;;;34.85;19.20;;;13.60;99.90;;;;;;4229907;28;20055;-83
2022/05/07 00:40:40;;;;;;;32.47;18.08;;;13.60;99.90;;;;;;4230976;28;20043;-83
2022/05/07 00:42:41;;;;;;;34.65;17.40;;;13.50;99.90;;;;;;4229692;28;20069;-83
2022/05/07 00:44:42;;;;;;;31.52;17.30;;;13.50;99.90;;;;;;4231029;28;20047;-83
2022/05/07 00:46:48;;;;;;;35.53;18.15;;;13.50;99.90;;;;;;4230183;28;20047;-83
2022/05/07 00:48:49;;;;;;;38.72;17.58;;;13.50;99.90;;;;;;4230844;28;20058;-83
2022/05/07 00:53:09;;;;;;;28.70;16.92;;;13.50;99.90;;;;;;4231108;28;20735;-83
2022/05/07 00:55:14;;;;;;;26.60;16.63;;;13.50;99.90;;;;;;4230715;28;20056;-83
2022/05/07 00:57:16;;;;;;;33.50;17.95;;;13.40;99.90;;;;;;4233821;28;20480;-83
2022/05/07 00:59:17;;;;;;;33.70;18.00;;;13.30;99.90;;;;;;4234031;28;20411;-83
2022/05/07 01:01:18;;;;;;;37.28;18.25;;;13.30;99.90;;;;;;4233695;28;20047;-83
2022/05/07 01:03:19;;;;;;;34.22;20.00;;;13.20;99.90;;;;;;4234582;28;20602;-83
2022/05/07 01:05:20;;;;;;;33.42;19.23;;;13.20;99.90;;;;;;4233905;27;20049;-83
2022/05/07 01:07:20;;;;;;;34.70;19.83;;;13.10;99.90;;;;;;4234003;28;20476;-83
2022/05/07 01:09:21;;;;;;;36.47;19.60;;;13.20;99.90;;;;;;4233522;28;20046;-83
2022/05/07 01:11:22;;;;;;;42.33;23.20;;;13.10;99.90;;;;;;4233565;28;20112;-83
2022/05/07 01:13:23;;;;;;;40.78;23.17;;;13.20;99.90;;;;;;4215248;28;20122;-81
2022/05/07 01:15:25;;;;;;;46.67;24.92;;;13.10;99.90;;;;;;4232264;28;20075;-83
2022/05/07 01:17:26;;;;;;;44.78;25.45;;;13.20;99.90;;;;;;4233480;28;20043;-83
2022/05/07 01:19:26;;;;;;;45.58;24.52;;;13.20;99.90;;;;;;4214894;28;20109;-83
2022/05/07 01:21:28;;;;;;;46.60;24.20;;;13.10;99.90;;;;;;4233291;28;20051;-83
2022/05/07 01:23:29;;;;;;;45.10;25.23;;;13.20;99.90;;;;;;4233326;28;20039;-83
2022/05/07 01:25:31;;;;;;;47.00;23.35;;;13.20;99.90;;;;;;4233385;28;20035;-82
2022/05/07 01:27:31;;;;;;;38.20;22.40;;;13.10;99.90;;;;;;4243583;27;20126;-82
2022/05/07 01:29:32;;;;;;;47.13;22.00;;;13.20;99.90;;;;;;4250222;27;20087;-82
2022/05/07 01:31:33;;;;;;;49.90;24.42;;;13.20;99.90;;;;;;4250424;27;20035;-82
2022/05/07 01:33:34;;;;;;;45.20;24.00;;;13.20;99.90;;;;;;4249272;27;20041;-82
2022/05/07 01:35:35;;;;;;;50.30;23.73;;;13.20;99.90;;;;;;4249932;27;20479;-82
2022/05/07 01:37:35;;;;;;;44.80;21.83;;;13.20;99.90;;;;;;4250750;27;20122;-82
2022/05/07 01:39:36;;;;;;;44.05;22.92;;;13.10;99.90;;;;;;4250483;27;20050;-82
2022/05/07 01:41:37;;;;;;;48.42;23.88;;;13.20;99.90;;;;;;4233098;28;20050;-83
2022/05/07 01:43:38;;;;;;;43.72;23.23;;;13.20;99.90;;;;;;4251037;27;20040;-82
2022/05/07 01:45:39;;;;;;;45.85;23.65;;;13.10;99.90;;;;;;4249967;27;20414;-83
2022/05/07 01:49:59;;;;;;;45.05;23.60;;;13.10;99.90;;;;;;4250742;27;20074;-82
2022/05/07 01:52:00;;;;;;;42.35;22.77;;;13.10;99.90;;;;;;4250746;27;20065;-82
2022/05/07 01:54:01;;;;;;;46.08;23.90;;;13.10;99.90;;;;;;4250448;27;20075;-82
2022/05/07 01:56:01;;;;;;;45.90;23.65;;;13.10;99.90;;;;;;4250508;27;20051;-82
2022/05/07 01:58:03;;;;;;;46.83;25.25;;;13.10;99.90;;;;;;4249850;27;20051;-82
2022/05/07 02:00:04;;;;;;;48.15;24.05;;;13.10;99.90;;;;;;4250415;27;20043;-82
2022/05/07 02:02:06;;;;;;;46.40;23.17;;;13.10;99.90;;;;;;4250291;27;20506;-83
2022/05/07 02:04:06;;;;;;;47.90;22.30;;;13.00;99.90;;;;;;4250379;27;20126;-82
2022/05/07 02:06:07;;;;;;;45.75;23.52;;;13.10;99.90;;;;;;4249954;27;20054;-83
2022/05/07 02:08:08;;;;;;;42.85;22.92;;;13.10;99.90;;;;;;4231701;28;20098;-83
2022/05/07 02:10:09;;;;;;;49.47;24.20;;;13.10;99.90;;;;;;4249818;27;20039;-83
2022/05/07 02:12:09;;;;;;;47.45;22.60;;;13.10;99.90;;;;;;4250070;27;20047;-82
2022/05/07 02:14:10;;;;;;;51.15;24.55;;;13.10;99.90;;;;;;4250095;27;20133;-82
2022/05/07 02:16:11;;;;;;;47.05;24.42;;;12.50;99.90;;;;;;4249783;27;20047;-82
2022/05/07 02:18:11;;;;;;;45.30;21.88;;;13.10;99.90;;;;;;4249911;27;20122;-83
2022/05/07 02:20:12;;;;;;;45.30;23.90;;;13.10;99.90;;;;;;4249900;27;20054;-83
2022/05/07 02:22:13;;;;;;;47.13;24.02;;;13.10;99.90;;;;;;4249573;27;20497;-83
2022/05/07 02:24:14;;;;;;;46.95;25.15;;;13.00;99.90;;;;;;4250287;27;20065;-83
2022/05/07 02:26:14;;;;;;;44.08;23.20;;;13.10;99.90;;;;;;4249179;27;20046;-82
2022/05/07 02:28:16;;;;;;;48.85;22.70;;;13.20;99.90;;;;;;4232903;27;20542;-82
2022/05/07 02:30:19;;;;;;;47.05;23.67;;;13.40;99.90;;;;;;4233023;28;20114;-82
2022/05/07 02:32:19;;;;;;;42.10;22.10;;;13.20;99.90;;;;;;4232654;28;20474;-82
2022/05/07 02:34:20;;;;;;;50.03;23.77;;;13.20;99.90;;;;;;4214541;28;20044;-82
2022/05/07 02:36:21;;;;;;;44.85;23.35;;;13.20;99.90;;;;;;4232784;28;20398;-83
2022/05/07 02:38:22;;;;;;;47.00;24.48;;;13.20;99.90;;;;;;4232934;28;20044;-83
2022/05/07 02:40:22;;;;;;;42.83;22.35;;;13.20;99.90;;;;;;4232665;28;20047;-83
2022/05/07 02:42:39;;;;;;;45.38;22.50;;;13.20;99.90;;;;;;4232892;28;20096;-83
2022/05/07 02:44:40;;;;;;;43.47;22.88;;;13.30;99.90;;;;;;4233139;28;20074;-83
2022/05/07 02:46:41;;;;;;;47.30;22.95;;;13.20;99.90;;;;;;4231865;28;20093;-83
2022/05/07 02:48:44;;;;;;;44.28;22.40;;;13.20;99.90;;;;;;4232354;28;20489;-83
2022/05/07 02:50:45;;;;;;;42.60;22.50;;;13.20;99.90;;;;;;4232533;28;20644;-83
2022/05/07 02:52:45;;;;;;;45.25;22.00;;;13.20;99.90;;;;;;4214649;28;20135;-83
2022/05/07 02:54:46;;;;;;;45.08;22.90;;;13.20;99.90;;;;;;4232659;28;20055;-82
2022/05/07 02:56:47;;;;;;;43.15;21.45;;;13.20;99.90;;;;;;4232134;28;20087;-82
2022/05/07 02:58:47;;;;;;;40.13;21.65;;;13.20;99.90;;;;;;4232242;28;20074;-82
2022/05/07 03:00:49;;;;;;;41.33;22.40;;;13.20;99.90;;;;;;4231919;28;20603;-82
2022/05/07 03:02:51;;;;;;;47.78;21.60;;;13.20;99.90;;;;;;4232180;28;20044;-82
2022/05/07 03:04:53;;;;;;;49.70;21.98;;;13.20;99.90;;;;;;4232623;28;20576;-82
2022/05/07 03:06:54;;;;;;;44.53;22.85;;;13.20;99.90;;;;;;4244998;27;20038;-83
2022/05/07 03:08:55;;;;;;;41.53;22.42;;;13.20;99.90;;;;;;4249285;27;20043;-83
2022/05/07 03:10:56;;;;;;;37.38;20.00;;;13.20;99.90;;;;;;4249634;27;20103;-82
2022/05/07 03:12:56;;;;;;;40.70;22.05;;;13.10;99.90;;;;;;4249249;27;20055;-83
2022/05/07 03:14:58;;;;;;;44.05;22.10;;;13.20;99.90;;;;;;4248955;27;20066;-83
2022/05/07 03:16:59;;;;;;;36.67;20.55;;;13.30;99.90;;;;;;4248900;27;20042;-83
2022/05/07 03:19:00;;;;;;;47.63;22.73;;;13.20;99.90;;;;;;4248558;27;20463;-83
2022/05/07 03:21:01;;;;;;;39.42;20.10;;;13.20;99.90;;;;;;4248408;27;20085;-83
2022/05/07 03:23:02;;;;;;;54.42;23.60;;;13.20;99.90;;;;;;4248748;27;20039;-82
2022/05/07 03:25:03;;;;;;;48.05;22.67;;;13.20;99.90;;;;;;4229603;28;20041;-82
2022/05/07 03:27:05;;;;;;;41.78;21.15;;;13.20;99.90;;;;;;4248717;27;20533;-82
2022/05/07 03:29:05;;;;;;;39.88;22.08;;;13.30;99.90;;;;;;4248635;27;20047;-83
2022/05/07 03:31:06;;;;;;;38.35;19.60;;;13.20;99.90;;;;;;4248952;27;20546;-83
2022/05/07 03:33:07;;;;;;;42.30;21.15;;;13.20;99.90;;;;;;4248630;27;20103;-83
2022/05/07 03:35:08;;;;;;;41.45;20.80;;;13.10;99.90;;;;;;4239381;27;20533;-83
2022/05/07 03:37:09;;;;;;;40.17;19.85;;;13.20;99.90;;;;;;4231309;28;20043;-83
2022/05/07 03:39:11;;;;;;;33.15;17.67;;;12.60;99.90;;;;;;4231670;28;20075;-83
2022/05/07 03:41:12;;;;;;;33.30;18.65;;;13.20;99.90;;;;;;4213196;28;20488;-83
2022/05/07 03:43:13;;;;;;;35.80;19.77;;;13.10;99.90;;;;;;4231769;28;20448;-82
2022/05/07 03:45:14;;;;;;;32.97;18.85;;;13.10;99.90;;;;;;4231613;28;20092;-82
2022/05/07 03:47:15;;;;;;;37.65;18.23;;;13.10;99.90;;;;;;4231461;28;20062;-83
2022/05/07 03:49:16;;;;;;;39.30;19.55;;;13.10;99.90;;;;;;4229756;28;20580;-83
2022/05/07 03:51:16;;;;;;;39.83;20.30;;;13.00;99.90;;;;;;4231795;28;20502;-83
2022/05/07 03:53:32;;;;;;;36.35;18.70;;;13.10;99.90;;;;;;4231372;28;20047;-83
2022/05/07 03:55:33;;;;;;;36.78;19.05;;;13.00;99.90;;;;;;4222341;28;20047;-82
2022/05/07 03:57:33;;;;;;;34.67;18.98;;;13.00;99.90;;;;;;4248581;27;20440;-83
2022/05/07 03:59:34;;;;;;;40.72;20.80;;;12.90;99.90;;;;;;4248317;27;20035;-83
2022/05/07 04:01:35;;;;;;;39.22;19.67;;;12.90;99.90;;;;;;4246439;27;20126;-83
2022/05/07 04:03:36;;;;;;;34.97;19.17;;;12.90;99.90;;;;;;4234715;27;20055;-83
2022/05/07 04:05:37;;;;;;;36.45;20.00;;;13.00;99.90;;;;;;4231753;28;20582;-83
2022/05/07 04:07:37;;;;;;;37.20;19.42;;;12.90;99.90;;;;;;4230793;28;20457;-83
2022/05/07 04:09:38;;;;;;;36.95;19.38;;;12.90;99.90;;;;;;4231265;28;20101;-83
2022/05/07 04:11:39;;;;;;;39.45;20.27;;;13.00;99.90;;;;;;4231382;28;20047;-83
2022/05/07 04:13:39;;;;;;;41.05;20.63;;;13.00;99.90;;;;;;4231297;28;20154;-83
2022/05/07 04:15:43;;;;;;;42.35;21.08;;;12.90;99.90;;;;;;4231424;28;20043;-83
2022/05/07 04:17:43;;;;;;;38.83;19.42;;;12.90;99.90;;;;;;4230734;28;20051;-83
2022/05/07 04:19:44;;;;;;;37.55;19.58;;;12.90;99.90;;;;;;4212471;28;20052;-82
2022/05/07 04:21:45;;;;;;;39.72;20.83;;;12.90;99.90;;;;;;4230929;28;20080;-82
2022/05/07 04:23:45;;;;;;;32.95;20.13;;;12.90;99.90;;;;;;4213091;28;20528;-82
2022/05/07 04:25:46;;;;;;;42.53;21.13;;;12.90;99.90;;;;;;4231235;28;20039;-82
2022/05/07 04:27:47;;;;;;;45.15;22.45;;;13.00;99.90;;;;;;4243238;28;20035;-82
2022/05/07 04:29:48;;;;;;;47.50;22.00;;;13.00;99.90;;;;;;4247831;28;20039;-82
2022/05/07 04:31:48;;;;;;;41.30;21.50;;;13.20;99.90;;;;;;4233569;28;20100;-82
2022/05/07 04:33:49;;;;;;;37.00;20.77;;;13.10;99.90;;;;;;4253581;27;20047;-82
2022/05/07 04:35:49;;;;;;;41.97;19.83;;;13.00;99.90;;;;;;4253612;27;20047;-82
2022/05/07 04:37:50;;;;;;;34.25;19.17;;;12.90;99.90;;;;;;4253636;27;20471;-82
2022/05/07 04:39:51;;;;;;;36.53;20.25;;;13.00;99.90;;;;;;4253365;27;20043;-82
2022/05/07 04:41:52;;;;;;;35.05;18.80;;;13.00;99.90;;;;;;4247828;27;20373;-82
2022/05/07 04:43:52;;;;;;;45.80;21.38;;;12.90;99.90;;;;;;4252095;27;20123;-82
2022/05/07 04:45:55;;;;;;;43.38;21.35;;;12.90;99.90;;;;;;4253694;27;20039;-82
2022/05/07 04:47:56;;;;;;;42.80;21.35;;;12.90;99.90;;;;;;4253374;27;20399;-82
2022/05/07 04:49:57;;;;;;;38.72;20.52;;;12.90;99.90;;;;;;4252785;27;20050;-83
2022/05/07 04:51:58;;;;;;;44.65;22.42;;;12.90;99.90;;;;;;4253532;27;20114;-83
2022/05/07 04:53:58;;;;;;;39.95;21.15;;;12.90;99.90;;;;;;4253567;27;20096;-83
2022/05/07 04:55:59;;;;;;;42.67;21.83;;;12.90;99.90;;;;;;4252097;27;20093;-83
2022/05/07 04:58:00;;;;;;;43.45;21.25;;;12.90;99.90;;;;;;4235283;27;20044;-83
2022/05/07 05:00:03;;;;;;;41.33;21.42;;;12.90;99.90;;;;;;4253427;27;20046;-83
2022/05/07 05:02:03;;;;;;;41.42;23.52;;;13.00;99.90;;;;;;4250804;27;20482;-83
2022/05/07 05:04:04;;;;;;;47.85;23.35;;;13.00;99.90;;;;;;4250087;27;20054;-84
2022/05/07 05:06:05;;;;;;;43.83;22.70;;;13.00;99.90;;;;;;4254019;27;20047;-83
2022/05/07 05:08:06;;;;;;;44.25;22.35;;;13.00;99.90;;;;;;4253678;27;20042;-83
2022/05/07 05:10:07;;;;;;;49.15;22.60;;;13.00;99.90;;;;;;4253268;27;20035;-83
2022/05/07 05:12:08;;;;;;;45.10;22.83;;;13.00;99.90;;;;;;4253511;27;20479;-83
2022/05/07 05:16:28;;;;;;;;;;;13.00;99.90;;;;;;4254226;27;20047;-83
2022/05/07 05:18:29;;;;;;;42.95;21.33;;;13.00;99.90;;;;;;4253750;27;19919;-83
2022/05/07 05:20:29;;;;;;;45.20;22.27;;;13.00;99.90;;;;;;4253756;27;20039;-83
2022/05/07 05:22:30;;;;;;;43.60;22.23;;;13.10;99.90;;;;;;4253356;27;20054;-83
2022/05/07 05:24:31;;;;;;;47.30;22.35;;;13.10;99.90;;;;;;4253631;27;20412;-83
2022/05/07 05:26:32;;;;;;;41.97;23.15;;;13.10;99.90;;;;;;4253460;27;20045;-86
2022/05/07 05:28:33;;;;;;;44.35;22.77;;;13.10;99.90;;;;;;4236080;28;20567;-86
2022/05/07 05:30:34;;;;;;;50.35;24.17;;;13.20;99.90;;;;;;4254746;27;20546;-86
2022/05/07 05:32:35;;;;;;;50.10;24.25;;;13.20;99.90;;;;;;4254426;27;20055;-86
2022/05/07 05:34:35;;;;;;;45.88;23.48;;;13.10;99.90;;;;;;4254548;27;20043;-86
2022/05/07 05:36:36;;;;;;;44.88;23.98;;;13.10;99.90;;;;;;4254686;27;20043;-86
2022/05/07 05:38:38;;;;;;;41.95;22.52;;;13.10;99.90;;;;;;4236132;28;20055;-86
2022/05/07 05:40:41;;;;;;;41.78;21.45;;;13.10;99.90;;;;;;4254893;27;20096;-86
2022/05/07 05:42:41;;;;;;;39.33;21.77;;;13.20;99.90;;;;;;4252869;27;20086;-85
2022/05/07 05:44:42;;;;;;;36.22;21.08;;;13.20;99.90;;;;;;4252247;27;20043;-86
2022/05/07 05:46:43;;;;;;;36.75;19.88;;;13.20;99.90;;;;;;4250496;27;20042;-86
2022/05/07 05:48:45;;;;;;;37.90;20.50;;;13.20;99.90;;;;;;4250296;27;20121;-86
2022/05/07 05:50:45;;;;;;;42.63;23.42;;;13.30;99.90;;;;;;4251796;27;20043;-86
2022/05/07 05:52:46;;;;;;;41.40;23.17;;;13.30;99.90;;;;;;4251936;27;20049;-86
2022/05/07 05:54:47;;;;;;;41.55;22.52;;;13.40;99.90;;;;;;4251324;27;20047;-86
2022/05/07 05:56:47;;;;;;;42.65;21.38;;;13.40;99.90;;;;;;4216690;28;20366;-86
2022/05/07 05:58:49;;;;;;;43.95;22.83;;;13.50;99.90;;;;;;4233148;28;20083;-86
2022/05/07 06:00:52;;;;;;;41.85;22.73;;;13.50;99.90;;;;;;4215750;28;20427;-85
2022/05/07 06:02:53;;;;;;;40.75;21.77;;;13.50;99.90;;;;;;4251236;27;20498;-85
2022/05/07 06:04:55;;;;;;;36.45;22.20;;;13.50;99.90;;;;;;4251170;27;20130;-84
2022/05/07 06:06:56;;;;;;;43.17;22.55;;;13.60;99.90;;;;;;4233061;28;20115;-85
2022/05/07 06:08:57;;;;;;;32.90;19.30;;;13.70;99.90;;;;;;4251031;27;20047;-85
2022/05/07 06:10:59;;;;;;;39.05;21.60;;;13.80;99.90;;;;;;4251091;27;20099;-85
2022/05/07 06:12:59;;;;;;;41.40;22.40;;;13.90;99.90;;;;;;4250018;27;20043;-86
2022/05/07 06:15:00;;;;;;;41.45;20.70;;;13.90;99.90;;;;;;4251315;27;20046;-85
2022/05/07 06:17:01;;;;;;;35.95;20.98;;;13.90;99.90;;;;;;4249511;27;20447;-85
2022/05/07 06:19:02;;;;;;;38.50;21.42;;;14.00;99.90;;;;;;4250720;27;20043;-85
2022/05/07 06:21:03;;;;;;;39.15;21.08;;;13.20;99.90;;;;;;4232816;28;20082;-85
2022/05/07 06:23:03;;;;;;;40.30;21.70;;;14.00;99.90;;;;;;4254146;27;20050;-85
2022/05/07 06:27:28;;;;;;;36.30;20.95;;;14.10;99.90;;;;;;4230208;28;20162;-84
2022/05/07 06:29:28;;;;;;;35.47;21.15;;;14.20;99.90;;;;;;4241883;28;20479;-85
2022/05/07 06:31:30;;;;;;;34.97;20.70;;;14.20;99.90;;;;;;4245881;28;20044;-85
2022/05/07 06:33:32;;;;;;;37.95;21.50;;;14.30;99.90;;;;;;4244725;28;20091;-85
2022/05/07 06:35:33;;;;;;;37.10;21.23;;;14.40;99.90;;;;;;4245481;28;20115;-84
2022/05/07 06:37:35;;;;;;;39.65;19.85;;;14.40;99.90;;;;;;4252830;27;20054;-85
2022/05/07 06:39:36;;;;;;;36.33;19.90;;;14.40;99.90;;;;;;4257048;27;20054;-85
2022/05/07 06:41:36;;;;;;;32.90;19.65;;;14.60;99.90;;;;;;4257390;27;20040;-85
2022/05/07 06:43:37;;;;;;;36.17;20.65;;;14.70;99.90;;;;;;4230372;28;20052;-85
2022/05/07 06:45:40;;;;;;;30.05;19.17;;;14.80;99.90;;;;;;4259332;27;20632;-85
2022/05/07 06:47:41;;;;;;;33.65;18.25;;;15.00;99.90;;;;;;4239062;28;20051;-85
2022/05/07 06:49:43;;;;;;;31.50;17.80;;;15.10;99.90;;;;;;4235658;28;20051;-84
2022/05/07 06:51:44;;;;;;;32.97;18.63;;;15.20;99.90;;;;;;4235026;28;20050;-85
2022/05/07 06:53:45;;;;;;;33.47;18.23;;;15.30;99.90;;;;;;4215394;28;20401;-85
2022/05/07 06:55:56;;;;;;;30.25;18.05;;;15.40;99.90;;;;;;4247728;27;20078;-85
2022/05/07 06:57:59;;;;;;;30.23;18.33;;;15.40;99.90;;;;;;4233560;28;20047;-86
2022/05/07 07:00:01;;;;;;;36.63;19.60;;;15.50;99.90;;;;;;4251164;27;20043;-86
2022/05/07 07:02:02;;;;;;;35.70;20.02;;;15.60;99.90;;;;;;4250424;27;20132;-86
2022/05/07 07:04:03;;;;;;;39.40;20.88;;;15.60;99.90;;;;;;4249361;27;20039;-86
2022/05/07 07:06:04;;;;;;;32.80;18.20;;;15.60;99.90;;;;;;4250194;27;20103;-86
2022/05/07 07:08:05;;;;;;;37.85;20.75;;;15.60;99.90;;;;;;4250154;27;20572;-87
2022/05/07 07:10:06;;;;;;;37.10;21.02;;;15.80;99.90;;;;;;4248675;27;20471;-87
2022/05/07 07:12:09;;;;;;;34.13;19.73;;;15.90;99.90;;;;;;4232090;28;20078;-88
2022/05/07 07:14:10;;;;;;;35.20;20.08;;;16.00;99.90;;;;;;4231369;28;20488;-87
2022/05/07 07:16:12;;;;;;;34.17;19.83;;;16.00;99.90;;;;;;4249583;27;20083;-90
2022/05/07 07:18:13;;;;;;;36.83;19.33;;;16.20;99.90;;;;;;4235248;27;20884;-88
2022/05/07 07:20:15;;;;;;;35.10;20.25;;;16.30;99.90;;;;;;4248753;27;20055;-88
2022/05/07 07:22:16;;;;;;;35.92;20.45;;;16.50;99.90;;;;;;4231364;28;20048;-86
2022/05/07 07:24:18;;;;;;;37.00;20.83;;;16.60;99.90;;;;;;4231632;28;20400;-85
2022/05/07 07:26:20;;;;;;;36.10;20.58;;;16.70;99.90;;;;;;4232135;28;20404;-86
2022/05/07 07:28:21;;;;;;;36.22;19.85;;;16.70;99.90;;;;;;4251046;27;20154;-85
2022/05/07 07:30:21;;;;;;;34.80;20.13;;;16.80;99.90;;;;;;4250131;27;20039;-86
2022/05/07 07:32:23;;;;;;;35.75;20.33;;;16.90;99.90;;;;;;4248019;27;20095;-86
2022/05/07 07:34:25;;;;;;;34.85;20.30;;;17.00;99.90;;;;;;4248109;27;20043;-86
2022/05/07 07:36:26;;;;;;;37.75;20.40;;;17.20;99.90;;;;;;4231221;28;20054;-85
2022/05/07 07:38:29;;;;;;;35.50;19.95;;;17.30;99.90;;;;;;4231015;28;20047;-85
2022/05/07 07:40:31;;;;;;;39.33;19.45;;;17.40;99.90;;;;;;4248170;27;20058;-85
2022/05/07 07:42:31;;;;;;;40.00;20.60;;;17.50;99.90;;;;;;4247483;27;20115;-85
2022/05/07 07:44:32;;;;;;;35.42;19.73;;;17.70;99.90;;;;;;4230860;28;20044;-86
2022/05/07 07:48:52;;;;;;;32.75;18.38;;;17.80;99.90;;;;;;4249387;27;20419;-85
2022/05/07 07:50:53;;;;;;;35.92;18.95;;;17.80;99.90;;;;;;4249526;27;20051;-86
2022/05/07 07:52:57;;;;;;;34.42;18.95;;;17.70;99.90;;;;;;4246412;27;20093;-86
2022/05/07 07:54:58;;;;;;;38.03;19.65;;;17.70;99.90;;;;;;4213862;28;20087;-85
2022/05/07 07:57:02;;;;;;;33.95;17.70;;;17.80;99.90;;;;;;4213814;28;20468;-85
2022/05/07 07:59:03;;;;;;;36.50;21.52;;;17.80;99.90;;;;;;4231949;28;20123;-86
2022/05/07 08:01:04;;;;;;;39.67;21.45;;;17.80;99.90;;;;;;4213672;28;20455;-85
2022/05/07 08:03:11;;;;;;;41.80;20.98;;;17.80;99.90;;;;;;4213925;28;20189;-86
2022/05/07 08:05:11;;;;;;;41.45;21.20;;;17.80;99.90;;;;;;4213309;28;20526;-85
2022/05/07 08:11:55;;;;;;;37.95;20.42;;;17.40;99.90;;;;;;4231920;28;20496;-85
2022/05/07 08:13:56;;;;;;;39.80;21.38;;;17.20;99.90;;;;;;4213498;28;20123;-85
2022/05/07 08:15:57;;;;;;;39.95;21.40;;;17.10;99.90;;;;;;4231766;28;20050;-86
2022/05/07 08:17:57;;;;;;;43.83;22.17;;;17.00;99.90;;;;;;4212985;28;20105;-85
2022/05/07 08:19:58;;;;;;;54.60;23.02;;;16.90;99.90;;;;;;4231060;28;20083;-85
2022/05/07 08:21:59;;;;;;;39.13;22.08;;;16.80;99.90;;;;;;4213937;28;20070;-85
2022/05/07 08:23:59;;;;;;;37.53;20.92;;;16.80;99.90;;;;;;4231579;28;20392;-85
2022/05/07 08:26:04;;;;;;;50.13;22.67;;;16.70;99.90;;;;;;4213231;28;20047;-85
2022/05/07 08:28:05;;;;;;;44.33;22.25;;;16.60;99.90;;;;;;4213597;28;20135;-85
2022/05/07 08:30:06;;;;;;;43.20;23.52;;;16.60;99.90;;;;;;4213321;28;20522;-86
2022/05/07 08:32:08;;;;;;;44.88;22.52;;;16.60;99.90;;;;;;4231223;28;20079;-86
2022/05/07 08:34:10;;;;;;;44.50;23.33;;;16.50;99.90;;;;;;4231482;28;20039;-85
2022/05/07 08:36:11;;;;;;;40.85;22.20;;;16.50;99.90;;;;;;4231676;28;20043;-85
2022/05/07 08:38:12;;;;;;;40.33;20.75;;;16.50;99.90;;;;;;4240982;28;20031;-85
2022/05/07 08:40:17;;;;;;;44.95;23.35;;;16.50;99.90;;;;;;4248806;28;20467;-85
2022/05/07 08:42:18;;;;;;;41.78;21.88;;;16.50;99.90;;;;;;4247712;28;20053;-85
2022/05/07 08:44:19;;;;;;;46.85;23.48;;;16.50;99.90;;;;;;4230188;28;20130;-85
2022/05/07 08:46:20;;;;;;;45.50;22.73;;;16.50;99.90;;;;;;4230242;28;20528;-85
2022/05/07 08:48:21;;;;;;;46.75;22.90;;;16.60;99.90;;;;;;4230466;28;20517;-85
2022/05/07 08:50:23;;;;;;;43.33;23.25;;;16.70;99.90;;;;;;4229750;28;20047;-85
2022/05/07 08:52:24;;;;;;;42.45;20.92;;;16.80;99.90;;;;;;4247149;28;20047;-85
2022/05/07 08:54:25;;;;;;;45.42;22.05;;;16.70;99.90;;;;;;4247324;28;20058;-85
2022/05/07 08:56:26;;;;;;;40.08;20.45;;;16.90;99.90;;;;;;4248679;28;20478;-86
2022/05/07 08:58:27;;;;;;;42.17;21.27;;;17.00;99.90;;;;;;4247067;28;20055;-85
2022/05/07 09:00:29;;;;;;;43.55;21.70;;;17.20;99.90;;;;;;4248210;28;20502;-85
2022/05/07 09:02:42;;;;;;;41.35;20.40;;;17.40;99.90;;;;;;4247274;28;20055;-85
2022/05/07 09:04:57;;;;;;;38.80;21.38;;;17.50;99.90;;;;;;4248286;28;20104;-86
2022/05/07 09:07:03;;;;;;;59.65;22.10;;;17.80;99.90;;;;;;4229880;28;20103;-86
2022/05/07 09:09:06;;;;;;;41.28;20.85;;;17.80;99.90;;;;;;4248639;28;20039;-86
2022/05/07 09:11:07;;;;;;;35.47;19.02;;;18.00;99.90;;;;;;4248212;28;20043;-86
2022/05/07 09:13:10;;;;;;;35.22;19.02;;;18.00;99.90;;;;;;4248286;28;20137;-86
2022/05/07 09:15:11;;;;;;;31.50;17.98;;;18.00;99.90;;;;;;4248860;28;20051;-86
2022/05/07 09:17:12;;;;;;;34.13;17.60;;;18.00;99.90;;;;;;4248593;27;20180;-86
2022/05/07 09:19:27;;;;;;;33.72;18.65;;;18.00;99.90;;;;;;4250541;27;20062;-86
2022/05/07 09:21:28;;;;;;;38.15;19.83;;;18.10;99.90;;;;;;4251677;27;20372;-87
2022/05/07 09:23:29;;;;;;;33.42;17.17;;;18.20;99.90;;;;;;4251236;27;20115;-85
2022/05/07 09:25:30;;;;;;;30.17;17.98;;;18.20;99.90;;;;;;4251613;27;20150;-85
2022/05/07 09:27:31;;;;;;;30.42;15.85;;;18.30;99.90;;;;;;4251441;27;20439;-84
2022/05/07 09:29:33;;;;;;;38.00;18.30;;;18.30;99.90;;;;;;4251389;27;20088;-84
2022/05/07 09:31:35;;;;;;;33.47;17.48;;;18.40;99.90;;;;;;4232891;28;20048;-85
2022/05/07 09:33:36;;;;;;;30.75;16.25;;;;;;;;;;4251395;27;20044;-85
2022/05/07 09:35:50;;;;;;;28.45;17.17;;;18.40;99.90;;;;;;4251518;27;20086;-85
2022/05/07 09:37:58;;;;;;;34.90;17.38;;;18.60;99.90;;;;;;4250641;27;20368;-85
2022/05/07 09:40:03;;;;;;;28.73;16.90;;;;;;;;;;4250300;27;20043;-86
2022/05/07 09:42:06;;;;;;;35.08;17.27;;;18.60;99.90;;;;;;4250178;27;20039;-85
2022/05/07 09:44:08;;;;;;;39.90;18.83;;;;;;;;;;4250407;27;20082;-85
2022/05/07 09:46:09;;;;;;;36.70;19.30;;;;;;;;;;4251473;27;20045;-86
2022/05/07 09:48:12;;;;;;;33.45;19.30;;;;;;;;;;4251842;27;20050;-86
2022/05/07 09:50:43;;;;;;;34.05;18.10;;;18.60;99.90;;;;;;4250832;27;20050;-85
2022/05/07 09:57:31;;;;;;;39.60;19.95;;;;;;;;;;4233588;28;20156;-87
2022/05/07 09:59:33;;;;;;;37.45;20.20;;;;;;;;;;4233885;28;20537;-86
2022/05/07 10:01:39;;;;;;;36.97;19.33;;;;;;;;;;4238817;27;20084;-86
2022/05/07 10:03:43;;;;;;;33.30;19.25;;;;;;;;;;4245590;27;20096;-86
2022/05/07 10:05:54;;;;;;;31.80;18.05;;;18.60;99.90;;;;;;4233066;28;20089;-86
2022/05/07 10:08:21;;;;;;;38.83;19.23;;;19.10;99.10;;;;;;4239601;27;20542;-86
2022/05/07 10:10:25;;;;;;;36.22;19.30;;;;;;;;;;4243038;27;20044;-86
2022/05/07 10:12:26;;;;;;;44.10;21.88;;;19.30;98.80;;;;;;4215733;28;20051;-86
2022/05/07 10:14:29;;;;;;;39.67;20.95;;;19.80;98.00;;;;;;4233516;28;20039;-86
2022/05/07 10:16:31;;;;;;;40.42;21.83;;;19.70;97.60;;;;;;4233522;28;20131;-84
2022/05/07 10:18:41;;;;;;;41.28;21.15;;;19.70;97.70;;;;;;4233656;28;20051;-86
2022/05/07 10:20:46;;;;;;;38.25;19.85;;;19.80;97.70;;;;;;4233467;28;20044;-86
2022/05/07 10:22:55;;;;;;;33.78;19.63;;;;;;;;;;4233373;28;20043;-86
2022/05/07 10:25:06;;;;;;;39.55;21.52;;;19.80;97.70;;;;;;4233301;28;20130;-86
2022/05/07 10:27:19;;;;;;;34.03;19.10;;;;;;;;;;4215209;28;20048;-87
2022/05/07 10:29:24;;;;;;;35.80;19.50;;;;;;;;;;4226330;28;20530;-86
2022/05/07 10:31:25;;;;;;;38.45;20.08;;;;;;;;;;4246135;27;20039;-87
2022/05/07 10:33:26;;;;;;;33.65;19.75;;;19.90;97.10;;;;;;4241760;27;20490;-87
2022/05/07 10:35:52;;;;;;;32.58;19.05;;;20.20;96.50;;;;;;4232310;28;20046;-84
2022/05/07 10:38:05;;;;;;;34.40;19.25;;;20.00;95.80;;;;;;4239063;27;20127;-85
2022/05/07 10:40:10;;;;;;;33.60;17.85;;;19.70;96.00;;;;;;4233274;28;20505;-86
2022/05/07 10:42:18;;;;;;;33.58;18.73;;;19.50;96.80;;;;;;4233471;28;20052;-86
2022/05/07 10:44:33;;;;;;;38.60;19.90;;;19.30;97.00;;;;;;4241660;27;20035;-86